Time;durP1;ratioP1;P1;durP2;ratioP2;P2;SDS_P1;SDS_P2;PMS_P1;PMS_P2;Temp;Humidity;BMP_temperature;BMP_pressure;BME280_temperature;BME280_humidity;BME280_pressure;Samples;Min_cycle;Max_cycle;Signal;HPM_P1;HPM_P2
2022/10/02 00:02:37;;;;;;;5.27;1.50;;;12.20;99.90;;;;;;5035635;28;20534;-72
2022/10/02 00:05:11;;;;;;;2.50;1.17;;;12.30;99.90;;;;;;5046722;28;20416;-73
2022/10/02 00:07:43;;;;;;;10.00;1.93;;;12.30;99.90;;;;;;5034038;28;20427;-72
2022/10/02 00:10:13;;;;;;;6.80;1.27;;;12.30;99.90;;;;;;5038606;28;20428;-71
2022/10/02 00:12:39;;;;;;;8.80;1.60;;;12.30;99.90;;;;;;5035069;28;20432;-73
2022/10/02 00:15:27;;;;;;;4.13;1.50;;;12.30;99.90;;;;;;5039439;28;20455;-72
2022/10/02 00:18:00;;;;;;;7.60;2.13;;;12.40;99.90;;;;;;5039013;28;20445;-72
2022/10/02 00:20:39;;;;;;;3.63;1.20;;;12.40;99.90;;;;;;5045491;28;20413;-72
2022/10/02 00:23:17;;;;;;;5.57;1.83;;;12.50;99.90;;;;;;5034914;28;20420;-72
2022/10/02 00:25:47;;;;;;;6.40;1.73;;;12.50;99.90;;;;;;5025048;28;20535;-72
2022/10/02 00:28:26;;;;;;;2.50;1.30;;;12.50;99.90;;;;;;5035173;28;20432;-72
2022/10/02 00:31:00;;;;;;;5.77;1.60;;;12.50;99.90;;;;;;5042925;28;20420;-73
2022/10/02 00:33:31;;;;;;;3.83;1.40;;;12.50;99.90;;;;;;5035875;28;20434;-72
2022/10/02 00:36:32;;;;;;;4.63;1.10;;;12.50;99.90;;;;;;5043085;28;20451;-72
2022/10/02 00:39:19;;;;;;;5.20;1.40;;;12.40;99.90;;;;;;5034380;28;20840;-71
2022/10/02 00:41:56;;;;;;;8.47;1.47;;;12.40;99.90;;;;;;5055116;28;20497;-72
2022/10/02 00:44:45;;;;;;;5.43;1.63;;;12.40;99.90;;;;;;5041585;28;20424;-72
2022/10/02 00:47:47;;;;;;;6.00;1.40;;;12.40;99.90;;;;;;5020058;28;20857;-72
2022/10/02 00:50:40;;;;;;;3.03;1.93;;;12.50;99.90;;;;;;5042342;28;20447;-72
2022/10/02 00:53:42;;;;;;;8.63;1.67;;;12.50;99.90;;;;;;5038904;28;20474;-72
2022/10/02 00:56:26;;;;;;;6.43;1.40;;;12.40;99.90;;;;;;5032926;28;20932;-72
2022/10/02 00:59:02;;;;;;;6.93;1.40;;;12.40;99.90;;;;;;5041561;28;20502;-70
2022/10/02 02:30:52;;;;;;;2.03;1.03;;;13.00;99.90;;;;;;6062610;23;21162;-71
2022/10/02 02:33:26;;;;;;;3.80;1.80;;;12.90;99.90;;;;;;4970248;28;20427;-72
2022/10/02 02:35:55;;;;;;;10.03;1.77;;;12.90;99.90;;;;;;4970204;28;20469;-73
2022/10/02 02:38:35;;;;;;;3.23;1.30;;;13.00;99.90;;;;;;4968431;28;20562;-73
2022/10/02 02:41:06;;;;;;;3.13;1.20;;;13.00;99.90;;;;;;4970914;28;20447;-73
2022/10/02 02:43:54;;;;;;;4.73;1.53;;;13.00;99.90;;;;;;4973709;28;20474;-73
2022/10/02 02:49:30;;;;;;;6.83;1.80;;;13.00;99.90;;;;;;4966825;28;20438;-73
2022/10/02 02:52:00;;;;;;;2.83;1.30;;;13.00;99.90;;;;;;4955078;28;20819;-73
2022/10/02 02:54:36;;;;;;;5.47;1.60;;;12.90;99.90;;;;;;4967103;28;20958;-73
2022/10/02 02:57:04;;;;;;;9.87;3.20;;;12.90;99.90;;;;;;4970879;28;20459;-73
2022/10/02 02:59:30;;;;;;;6.63;1.60;;;12.90;99.90;;;;;;4973195;28;20864;-74
2022/10/02 03:01:57;;;;;;;8.10;1.60;;;12.90;99.90;;;;;;4967765;28;20539;-73
2022/10/02 03:04:22;;;;;;;8.03;1.87;;;12.90;99.90;;;;;;4973669;28;20478;-73
2022/10/02 03:06:52;;;;;;;6.43;1.63;;;12.90;99.90;;;;;;4973543;28;20427;-73
2022/10/02 03:09:20;;;;;;;5.73;1.93;;;12.90;99.90;;;;;;4964699;28;20188;-73
2022/10/02 03:11:58;;;;;;;9.50;2.17;;;12.90;99.90;;;;;;4973574;28;20449;-73
2022/10/02 03:14:52;;;;;;;4.40;1.27;;;12.90;99.90;;;;;;4961879;28;20416;-73
2022/10/02 03:17:28;;;;;;;7.13;1.33;;;12.90;99.90;;;;;;4972759;28;20425;-73
2022/10/02 03:20:04;;;;;;;14.83;2.10;;;12.90;99.90;;;;;;4973376;28;20558;-73
2022/10/02 03:22:35;;;;;;;6.30;2.70;;;12.90;99.90;;;;;;4964652;28;20443;-73
2022/10/02 03:25:14;;;;;;;3.80;1.60;;;12.90;99.90;;;;;;4972660;28;20853;-73
2022/10/02 03:27:53;;;;;;;4.53;1.23;;;13.00;99.90;;;;;;4967019;28;20780;-73
2022/10/02 03:30:23;;;;;;;7.27;2.60;;;13.00;99.90;;;;;;4973442;28;20855;-73
2022/10/02 03:32:52;;;;;;;9.53;2.00;;;13.00;99.90;;;;;;4973007;28;20497;-71
2022/10/02 03:35:19;;;;;;;6.00;1.60;;;13.00;99.90;;;;;;4972470;28;20426;-70
2022/10/02 03:37:48;;;;;;;8.87;1.83;;;13.00;99.90;;;;;;4972973;28;20420;-71
2022/10/02 03:40:14;;;;;;;9.60;1.43;;;13.00;99.90;;;;;;4972425;28;20573;-71
2022/10/02 03:42:40;;;;;;;5.80;1.57;;;13.00;99.90;;;;;;4973808;28;20439;-71
2022/10/02 03:45:06;;;;;;;8.87;1.80;;;13.00;99.90;;;;;;4968473;28;20424;-71
2022/10/02 03:47:32;;;;;;;7.47;1.87;;;13.00;99.90;;;;;;4962000;28;20788;-71
2022/10/02 03:49:57;;;;;;;8.07;1.63;;;13.00;99.90;;;;;;4966149;28;20428;-71
2022/10/02 03:52:23;;;;;;;18.33;2.90;;;13.00;99.90;;;;;;4965880;28;20204;-71
2022/10/02 03:54:55;;;;;;;18.40;2.50;;;13.00;99.90;;;;;;4972709;28;20413;-71
2022/10/02 03:57:23;;;;;;;3.60;1.63;;;12.90;99.90;;;;;;4972795;28;20423;-71
2022/10/02 04:00:01;;;;;;;9.33;1.77;;;12.90;99.90;;;;;;4972564;28;20475;-71
2022/10/02 04:02:43;;;;;;;5.13;1.57;;;12.90;99.90;;;;;;4964286;28;20454;-71
2022/10/02 04:05:26;;;;;;;3.33;1.30;;;12.90;99.90;;;;;;4965973;28;20431;-71
2022/10/02 04:08:21;;;;;;;14.03;1.60;;;12.80;99.90;;;;;;4958404;28;20415;-72
2022/10/02 04:10:46;;;;;;;5.13;1.70;;;12.80;99.90;;;;;;4955053;28;20427;-71
2022/10/02 04:13:27;;;;;;;6.33;1.60;;;12.80;99.90;;;;;;4970174;28;20791;-70
2022/10/02 04:16:14;;;;;;;5.40;1.20;;;12.80;99.90;;;;;;4966938;28;20180;-71
2022/10/02 04:18:50;;;;;;;8.07;2.20;;;12.80;99.90;;;;;;4966830;28;20455;-71
2022/10/02 04:21:26;;;;;;;4.10;1.23;;;12.80;99.90;;;;;;4959024;28;20444;-71
2022/10/02 04:23:58;;;;;;;3.87;1.63;;;12.80;99.90;;;;;;4970282;28;20421;-71
2022/10/02 04:26:29;;;;;;;3.63;1.60;;;12.70;99.90;;;;;;4964049;28;20418;-70
2022/10/02 04:29:12;;;;;;;8.43;1.63;;;12.80;99.90;;;;;;4968720;28;20427;-71
2022/10/02 04:31:38;;;;;;;7.10;2.30;;;12.80;99.90;;;;;;4971190;28;21045;-70
2022/10/02 04:34:09;;;;;;;3.17;1.40;;;12.80;99.90;;;;;;4961870;28;20531;-71
2022/10/02 04:37:11;;;;;;;9.17;1.97;;;12.70;99.90;;;;;;4972309;28;20191;-71
2022/10/02 04:40:07;;;;;;;5.77;1.93;;;12.80;99.90;;;;;;4969241;28;21009;-70
2022/10/02 04:42:41;;;;;;;12.10;2.37;;;12.80;99.90;;;;;;4965705;28;20945;-70
2022/10/02 04:45:48;;;;;;;6.63;1.47;;;12.80;99.90;;;;;;4970177;28;20411;-70
2022/10/02 04:48:41;;;;;;;6.60;1.30;;;12.80;99.90;;;;;;4946842;28;21056;-71
2022/10/02 04:51:23;;;;;;;6.33;1.50;;;12.80;99.90;;;;;;4971500;28;20485;-71
2022/10/02 04:53:54;;;;;;;4.47;1.30;;;12.80;99.90;;;;;;4968809;28;20424;-71
2022/10/02 04:56:29;;;;;;;5.40;1.40;;;12.80;99.90;;;;;;4971341;28;20421;-71
2022/10/02 04:59:03;;;;;;;4.60;1.60;;;12.90;99.90;;;;;;4961814;28;20500;-71
2022/10/02 05:01:52;;;;;;;5.63;1.77;;;12.80;99.90;;;;;;4985746;28;20527;-70
2022/10/02 05:04:28;;;;;;;3.17;1.13;;;12.80;99.90;;;;;;4971722;28;20416;-71
2022/10/02 05:07:03;;;;;;;6.03;1.40;;;12.80;99.90;;;;;;4968034;28;20431;-72
2022/10/02 05:10:13;;;;;;;6.87;2.10;;;12.80;99.90;;;;;;4967650;28;20418;-72
2022/10/02 05:13:22;;;;;;;6.63;1.53;;;12.70;99.90;;;;;;4971044;28;20439;-71
2022/10/02 05:16:05;;;;;;;3.83;1.30;;;12.70;99.90;;;;;;4954303;28;20434;-71
2022/10/02 05:19:07;;;;;;;4.60;1.50;;;12.60;99.90;;;;;;4960813;28;20529;-72
2022/10/02 05:22:17;;;;;;;5.03;1.47;;;12.60;99.90;;;;;;4956300;28;20813;-71
2022/10/02 05:25:02;;;;;;;5.13;1.30;;;12.60;99.90;;;;;;4970811;28;20415;-71
2022/10/02 05:27:42;;;;;;;10.40;2.40;;;12.60;99.90;;;;;;4969242;28;20430;-71
2022/10/02 05:30:13;;;;;;;6.97;1.80;;;12.50;99.90;;;;;;4975809;28;20519;-72
2022/10/02 05:33:00;;;;;;;8.30;1.73;;;12.50;99.90;;;;;;4971219;28;20477;-72
2022/10/02 05:35:40;;;;;;;7.83;2.00;;;12.50;99.90;;;;;;4960575;28;20415;-71
2022/10/02 05:38:34;;;;;;;4.33;1.57;;;12.40;99.90;;;;;;4974023;28;20851;-70
2022/10/02 05:41:13;;;;;;;3.10;2.30;;;12.50;99.90;;;;;;4973273;28;20763;-71
2022/10/02 05:43:47;;;;;;;8.57;2.37;;;12.40;99.90;;;;;;4975549;28;20486;-71
2022/10/02 05:46:22;;;;;;;3.90;1.90;;;12.50;99.90;;;;;;4973005;28;20478;-72
2022/10/02 05:49:07;;;;;;;7.20;1.87;;;12.40;99.90;;;;;;4970847;28;20489;-70
2022/10/02 05:51:46;;;;;;;4.33;1.77;;;12.50;99.90;;;;;;4966267;28;20956;-70
2022/10/02 05:54:26;;;;;;;7.27;3.30;;;12.50;99.90;;;;;;4962704;28;20487;-71
2022/10/02 05:57:21;;;;;;;3.67;2.90;;;12.40;99.90;;;;;;4972826;28;20426;-73
2022/10/02 05:59:59;;;;;;;13.57;2.73;;;12.50;99.90;;;;;;4961590;28;20468;-72
2022/10/02 06:02:49;;;;;;;7.73;2.50;;;12.50;99.90;;;;;;4966724;28;20443;-72
2022/10/02 06:05:41;;;;;;;10.77;3.37;;;12.50;99.90;;;;;;4965971;28;20417;-72
2022/10/02 06:08:11;;;;;;;6.87;2.30;;;12.50;99.90;;;;;;4971939;28;20424;-73
2022/10/02 06:10:47;;;;;;;5.47;2.27;;;12.50;99.90;;;;;;4974364;28;20423;-72
2022/10/02 06:13:29;;;;;;;5.23;2.63;;;12.50;99.90;;;;;;4974702;28;20946;-72
2022/10/02 06:16:07;;;;;;;7.80;2.60;;;12.60;99.90;;;;;;4972660;28;20426;-72
2022/10/02 06:18:37;;;;;;;8.73;3.17;;;12.60;99.90;;;;;;4962839;28;20462;-72
2022/10/02 06:21:09;;;;;;;10.90;3.07;;;12.60;99.90;;;;;;4966703;28;20467;-72
2022/10/02 06:23:42;;;;;;;3.50;2.20;;;12.60;99.90;;;;;;4974492;28;20423;-72
2022/10/02 06:26:16;;;;;;;5.83;2.17;;;12.60;99.90;;;;;;4971712;28;20423;-72
2022/10/02 06:28:51;;;;;;;6.40;2.53;;;12.70;99.90;;;;;;4969244;28;20423;-72
2022/10/02 06:32:11;;;;;;;8.20;3.00;;;12.70;99.90;;;;;;4972005;28;20466;-72
2022/10/02 06:34:36;;;;;;;10.73;4.57;;;12.70;99.90;;;;;;4961788;28;20555;-73
2022/10/02 06:37:49;;;;;;;9.27;6.20;;;12.70;99.90;;;;;;4967305;28;20506;-72
2022/10/02 06:40:41;;;;;;;14.40;9.20;;;12.80;99.90;;;;;;4964619;28;20739;-73
2022/10/02 06:43:34;;;;;;;22.97;6.80;;;12.80;99.90;;;;;;4955178;28;20516;-72
2022/10/02 06:46:13;;;;;;;8.77;4.00;;;12.80;99.90;;;;;;4970972;28;20415;-71
2022/10/02 06:49:00;;;;;;;15.57;3.30;;;12.80;99.90;;;;;;4965160;28;20435;-72
2022/10/02 06:51:38;;;;;;;8.60;2.20;;;12.80;99.90;;;;;;4968292;28;20950;-72
2022/10/02 06:54:23;;;;;;;3.70;2.30;;;12.80;99.90;;;;;;4970705;28;20556;-73
2022/10/02 06:57:01;;;;;;;6.63;2.50;;;12.80;99.90;;;;;;4969146;28;20950;-72
2022/10/02 06:59:43;;;;;;;3.97;2.40;;;12.90;99.90;;;;;;4971349;28;20466;-72
2022/10/02 07:02:24;;;;;;;13.53;2.40;;;12.80;99.90;;;;;;4961804;28;20483;-72
2022/10/02 07:05:16;;;;;;;5.97;2.10;;;12.80;99.90;;;;;;4968945;28;20480;-72
2022/10/02 07:07:58;;;;;;;9.73;3.10;;;12.80;99.90;;;;;;4970276;28;20423;-73
2022/10/02 07:10:39;;;;;;;5.13;2.50;;;12.80;99.90;;;;;;4972862;28;20936;-72
2022/10/02 07:13:24;;;;;;;5.00;2.87;;;12.80;99.90;;;;;;4955382;28;20507;-72
2022/10/02 07:16:07;;;;;;;6.93;2.90;;;12.80;99.90;;;;;;4970287;28;20458;-73
2022/10/02 07:18:41;;;;;;;5.60;2.80;;;12.80;99.90;;;;;;4964950;28;20798;-72
2022/10/02 07:21:28;;;;;;;18.37;4.70;;;12.80;99.90;;;;;;4968724;28;20515;-73
2022/10/02 07:24:44;;;;;;;12.73;5.20;;;12.90;99.90;;;;;;4973583;28;20422;-72
2022/10/02 07:27:13;;;;;;;7.20;4.30;;;12.90;99.90;;;;;;4969595;28;20506;-72
2022/10/02 07:29:57;;;;;;;12.10;4.63;;;12.90;99.90;;;;;;4973504;28;20427;-72
2022/10/02 07:32:50;;;;;;;8.43;3.97;;;12.90;99.90;;;;;;4973214;28;20462;-72
2022/10/02 07:35:25;;;;;;;12.60;2.97;;;12.90;99.90;;;;;;4972007;28;20462;-72
2022/10/02 07:38:09;;;;;;;8.43;3.10;;;12.90;99.90;;;;;;4965808;28;20806;-73
2022/10/02 07:41:05;;;;;;;11.93;3.90;;;13.00;99.90;;;;;;4967642;28;20485;-72
2022/10/02 07:43:56;;;;;;;7.13;3.07;;;13.00;99.90;;;;;;4958885;28;20415;-72
2022/10/02 07:46:55;;;;;;;10.63;2.40;;;13.00;99.90;;;;;;4972522;28;20514;-72
2022/10/02 07:49:28;;;;;;;5.97;3.30;;;13.10;99.90;;;;;;4971029;28;20419;-73
2022/10/02 07:51:54;;;;;;;10.73;3.90;;;13.10;99.90;;;;;;4973155;28;20939;-72
2022/10/02 07:54:37;;;;;;;6.70;4.20;;;13.10;99.90;;;;;;4966014;28;20503;-72
2022/10/02 07:57:33;;;;;;;5.87;3.20;;;13.00;99.90;;;;;;4968431;28;20183;-73
2022/10/02 08:00:10;;;;;;;3.77;3.37;;;13.00;99.90;;;;;;4948981;28;21010;-72
2022/10/02 08:02:51;;;;;;;3.23;2.93;;;13.00;99.90;;;;;;4970515;28;20545;-72
2022/10/02 08:05:28;;;;;;;5.93;3.80;;;13.00;99.90;;;;;;4970851;28;20435;-73
2022/10/02 08:07:58;;;;;;;7.23;3.80;;;13.10;99.90;;;;;;4972524;28;20415;-72
2022/10/02 08:10:30;;;;;;;6.70;2.60;;;13.00;99.90;;;;;;4962796;28;20423;-73
2022/10/02 08:13:05;;;;;;;8.40;7.40;;;13.10;99.90;;;;;;4965883;28;20449;-73
2022/10/02 08:15:37;;;;;;;9.50;5.90;;;13.10;99.90;;;;;;4967938;28;20426;-72
2022/10/02 08:18:12;;;;;;;9.53;3.97;;;13.10;99.90;;;;;;4972519;28;20431;-71
2022/10/02 08:20:42;;;;;;;7.07;3.53;;;13.20;99.90;;;;;;4962343;28;20431;-73
2022/10/02 08:23:20;;;;;;;6.60;4.00;;;13.20;99.90;;;;;;4972628;28;20543;-72
2022/10/02 08:25:52;;;;;;;9.40;5.03;;;13.30;99.90;;;;;;4970759;28;20832;-72
2022/10/02 08:28:36;;;;;;;10.17;5.70;;;13.50;99.90;;;;;;4964535;28;20412;-72
2022/10/02 08:31:08;;;;;;;11.13;7.50;;;13.60;99.90;;;;;;4971745;28;20473;-72
2022/10/02 08:33:34;;;;;;;7.83;4.33;;;13.80;99.90;;;;;;4972725;28;20423;-74
2022/10/02 08:36:15;;;;;;;9.57;3.20;;;13.90;99.90;;;;;;4964630;28;20458;-73
2022/10/02 08:38:43;;;;;;;6.10;3.13;;;14.00;99.90;;;;;;4965967;28;20214;-73
2022/10/02 08:41:42;;;;;;;12.27;3.27;;;13.80;99.90;;;;;;4964795;28;20436;-72
2022/10/02 08:44:17;;;;;;;6.80;3.60;;;13.80;99.90;;;;;;4955689;28;20416;-73
2022/10/02 08:47:05;;;;;;;4.53;3.20;;;13.90;99.90;;;;;;4958414;28;20419;-73
2022/10/02 08:50:04;;;;;;;9.60;3.30;;;14.00;99.90;;;;;;4969418;28;20451;-72
2022/10/02 08:52:30;;;;;;;8.70;2.80;;;14.00;99.90;;;;;;4972101;28;20434;-73
2022/10/02 08:55:27;;;;;;;5.73;3.20;;;14.10;99.90;;;;;;4961926;28;20420;-73
2022/10/02 08:58:09;;;;;;;6.00;2.37;;;14.30;99.90;;;;;;4960159;28;20239;-72
2022/10/02 09:01:21;;;;;;;8.63;2.97;;;14.40;99.90;;;;;;4956234;28;20443;-71
2022/10/02 09:04:27;;;;;;;3.90;3.17;;;14.50;99.90;;;;;;4950535;29;20427;-73
2022/10/02 09:07:38;;;;;;;3.13;2.83;;;14.50;99.90;;;;;;4966282;28;20762;-73
2022/10/02 09:10:44;;;;;;;7.07;2.90;;;14.60;99.90;;;;;;4968684;28;20465;-72
2022/10/02 09:13:31;;;;;;;5.17;3.37;;;14.90;99.90;;;;;;4965367;28;20416;-73
2022/10/02 09:16:14;;;;;;;10.53;3.50;;;14.90;99.90;;;;;;4975726;28;20820;-72
2022/10/02 09:18:39;;;;;;;4.90;3.03;;;14.90;99.90;;;;;;4969417;28;20455;-73
2022/10/02 09:21:28;;;;;;;9.77;3.40;;;14.80;99.90;;;;;;4966459;28;20975;-73
2022/10/02 09:24:25;;;;;;;5.40;2.70;;;14.80;99.90;;;;;;4975668;28;20204;-72
2022/10/02 09:27:23;;;;;;;5.97;2.53;;;14.70;99.90;;;;;;4964067;28;20434;-72
2022/10/02 09:30:08;;;;;;;5.23;2.33;;;14.80;99.90;;;;;;4970851;28;20419;-72
2022/10/02 09:32:33;;;;;;;11.13;3.00;;;14.90;99.90;;;;;;4974844;28;20451;-72
2022/10/02 09:35:18;;;;;;;9.30;2.70;;;15.00;99.90;;;;;;4972220;28;20573;-73
2022/10/02 09:37:57;;;;;;;8.57;2.07;;;15.10;99.90;;;;;;4968878;28;20184;-73
2022/10/02 09:40:41;;;;;;;9.13;2.90;;;15.20;99.90;;;;;;4970518;28;20757;-72
2022/10/02 09:43:27;;;;;;;13.83;3.50;;;15.10;99.90;;;;;;4972992;28;20450;-73
2022/10/02 09:46:32;;;;;;;5.70;2.90;;;15.00;99.90;;;;;;4975232;28;20416;-73
2022/10/02 09:49:42;;;;;;;4.10;2.73;;;15.00;99.90;;;;;;4973156;28;20431;-72
2022/10/02 09:52:34;;;;;;;2.80;2.23;;;15.00;99.90;;;;;;4972540;28;20450;-72
2022/10/02 09:55:24;;;;;;;3.93;2.50;;;15.00;99.90;;;;;;4975840;28;20477;-72
2022/10/02 09:58:20;;;;;;;5.73;2.50;;;14.80;99.90;;;;;;4973583;28;20419;-72
2022/10/02 10:00:55;;;;;;;3.87;2.27;;;14.70;99.90;;;;;;4974912;28;20424;-73
2022/10/02 10:03:43;;;;;;;2.73;2.50;;;14.60;99.90;;;;;;4972896;28;20415;-72
2022/10/02 10:06:38;;;;;;;4.10;1.83;;;14.60;99.90;;;;;;4972822;28;20450;-72
2022/10/02 10:09:40;;;;;;;6.17;2.23;;;14.60;99.90;;;;;;4951717;28;20439;-72
2022/10/02 10:12:33;;;;;;;4.00;2.10;;;14.50;99.90;;;;;;4967569;28;20474;-72
2022/10/02 10:15:24;;;;;;;4.33;1.60;;;14.60;99.90;;;;;;4970695;28;20423;-72
2022/10/02 10:18:15;;;;;;;1.50;1.40;;;14.70;99.90;;;;;;4968508;28;20427;-73
2022/10/02 10:21:06;;;;;;;4.67;2.67;;;14.70;99.90;;;;;;4972806;28;20916;-73
2022/10/02 10:23:35;;;;;;;3.13;1.40;;;14.70;99.90;;;;;;4968641;28;20831;-72
2022/10/02 10:26:32;;;;;;;4.43;1.87;;;14.50;99.90;;;;;;4963990;28;20420;-73
2022/10/02 10:29:20;;;;;;;2.13;1.90;;;14.50;99.90;;;;;;4973722;28;20418;-72
2022/10/02 10:32:14;;;;;;;5.53;1.37;;;14.50;99.90;;;;;;4956559;28;20459;-73
2022/10/02 10:35:05;;;;;;;2.97;1.30;;;14.70;99.90;;;;;;4968020;28;20928;-72
2022/10/02 10:40:42;;;;;;;5.03;2.07;;;14.90;99.90;;;;;;4974637;28;20470;-73
2022/10/02 10:43:36;;;;;;;2.70;1.80;;;14.90;99.90;;;;;;4974548;28;20469;-73
2022/10/02 10:46:11;;;;;;;1.47;1.30;;;14.90;99.90;;;;;;4974123;28;20419;-71
2022/10/02 10:49:14;;;;;;;1.37;0.90;;;14.90;99.90;;;;;;4971953;28;20490;-72
2022/10/02 10:52:12;;;;;;;0.70;0.70;;;14.80;99.90;;;;;;4961368;28;21007;-72
2022/10/02 10:55:36;;;;;;;1.70;1.07;;;14.60;99.90;;;;;;4967957;28;20896;-71
2022/10/02 10:58:23;;;;;;;1.23;0.80;;;14.50;99.90;;;;;;4899513;29;20462;-73
2022/10/02 11:01:23;;;;;;;2.90;1.40;;;14.50;99.90;;;;;;4970315;28;20439;-72
2022/10/02 11:04:18;;;;;;;1.63;1.00;;;14.30;99.90;;;;;;4968221;28;20414;-72
2022/10/02 11:07:12;;;;;;;1.10;1.10;;;14.30;99.90;;;;;;4961426;28;20439;-72
2022/10/02 11:10:06;;;;;;;0.87;0.80;;;14.40;99.90;;;;;;4973795;28;20426;-72
2022/10/02 11:12:56;;;;;;;0.70;0.70;;;14.40;99.90;;;;;;4971539;28;20435;-72
2022/10/02 11:15:50;;;;;;;0.90;0.73;;;14.40;99.90;;;;;;4969561;28;20422;-73
2022/10/02 11:18:38;;;;;;;3.80;0.80;;;14.40;99.90;;;;;;4972066;28;20416;-73
2022/10/02 11:21:38;;;;;;;0.90;0.87;;;14.50;99.90;;;;;;4963712;28;20448;-73
2022/10/02 11:24:19;;;;;;;0.80;0.80;;;14.60;99.90;;;;;;4966130;28;20423;-73
2022/10/02 11:26:58;;;;;;;0.60;0.60;;;14.70;99.90;;;;;;4965095;28;20466;-72
2022/10/02 11:29:45;;;;;;;3.17;0.70;;;14.70;99.90;;;;;;4972931;28;20422;-73
2022/10/02 11:32:30;;;;;;;1.80;0.87;;;14.70;99.90;;;;;;4972870;28;20462;-73
2022/10/02 11:35:16;;;;;;;2.30;0.60;;;14.70;99.90;;;;;;4972574;28;20917;-73
2022/10/02 11:38:08;;;;;;;0.50;0.50;;;14.70;99.90;;;;;;4964952;28;20427;-73
2022/10/02 11:40:45;;;;;;;0.80;0.80;;;14.80;99.90;;;;;;4967142;28;20423;-72
2022/10/02 11:43:46;;;;;;;0.53;0.53;;;14.80;99.90;;;;;;4971183;28;20422;-73
2022/10/02 11:46:54;;;;;;;0.70;0.60;;;14.70;99.90;;;;;;4971446;28;20438;-73
2022/10/02 11:49:50;;;;;;;1.00;0.77;;;14.60;99.90;;;;;;4972278;28;20423;-73
2022/10/02 11:52:48;;;;;;;0.83;0.83;;;14.50;99.90;;;;;;4970366;28;20459;-73
2022/10/02 11:55:14;;;;;;;0.87;0.80;;;14.40;99.90;;;;;;4968076;28;20416;-73
2022/10/02 11:58:19;;;;;;;0.80;0.70;;;14.40;99.90;;;;;;4970490;28;20423;-73
2022/10/02 12:01:24;;;;;;;0.60;0.60;;;14.30;99.90;;;;;;4972798;28;20242;-73
2022/10/02 12:04:12;;;;;;;0.80;0.70;;;14.40;99.90;;;;;;4970317;28;20419;-73
2022/10/02 12:07:12;;;;;;;0.50;0.50;;;14.50;99.90;;;;;;4958006;28;20934;-74
2022/10/02 12:10:04;;;;;;;0.90;0.90;;;14.60;99.90;;;;;;4957228;28;20423;-72
2022/10/02 12:12:35;;;;;;;1.20;1.10;;;14.60;99.90;;;;;;4969503;28;20502;-72
2022/10/02 12:15:22;;;;;;;3.57;2.10;;;14.60;99.90;;;;;;4968125;28;20415;-72
2022/10/02 12:18:16;;;;;;;5.73;4.53;;;14.60;99.90;;;;;;4965253;28;20431;-72
2022/10/02 12:27:14;;;;;;;1.63;1.53;;;14.50;99.90;;;;;;4972511;28;20827;-72
2022/10/02 12:29:59;;;;;;;1.00;0.90;;;14.50;99.90;;;;;;4966428;28;21023;-72
2022/10/02 12:32:35;;;;;;;0.83;0.83;;;14.40;99.90;;;;;;4972688;28;20450;-73
2022/10/02 12:35:14;;;;;;;0.67;0.60;;;14.30;99.90;;;;;;4973810;28;20916;-73
2022/10/02 12:38:06;;;;;;;1.77;0.70;;;14.20;99.90;;;;;;4967023;28;20418;-72
2022/10/02 12:41:01;;;;;;;0.90;0.60;;;14.20;99.90;;;;;;4974181;28;20428;-73
2022/10/02 12:43:58;;;;;;;0.70;0.70;;;14.10;99.90;;;;;;4972581;28;20687;-72
2022/10/02 12:46:47;;;;;;;3.33;1.73;;;14.10;99.90;;;;;;4975678;28;20411;-73
2022/10/02 12:49:44;;;;;;;1.27;1.13;;;14.20;99.90;;;;;;4973208;28;20442;-73
2022/10/02 12:52:42;;;;;;;1.00;1.00;;;14.20;99.90;;;;;;4972294;28;20443;-74
2022/10/02 12:55:51;;;;;;;0.97;0.90;;;14.20;99.90;;;;;;4969490;28;20511;-74
2022/10/02 12:58:46;;;;;;;1.00;0.90;;;14.20;99.90;;;;;;4986584;28;20415;-73
2022/10/02 13:01:49;;;;;;;0.80;0.80;;;14.10;99.90;;;;;;4966500;28;20590;-74
2022/10/02 13:04:36;;;;;;;1.67;0.60;;;14.10;99.90;;;;;;4974400;28;20423;-74
2022/10/02 13:07:31;;;;;;;0.87;0.80;;;14.10;99.90;;;;;;4971856;28;20443;-73
2022/10/02 13:10:21;;;;;;;0.73;0.60;;;14.00;99.90;;;;;;4948737;28;20536;-73
2022/10/02 13:13:35;;;;;;;0.50;0.50;;;14.00;99.90;;;;;;4981756;28;20534;-74
2022/10/02 13:16:23;;;;;;;2.13;0.60;;;14.00;99.90;;;;;;4974952;28;20863;-73
2022/10/02 13:19:12;;;;;;;0.53;0.53;;;14.10;99.90;;;;;;4975673;28;20987;-73
2022/10/02 13:22:01;;;;;;;0.70;0.60;;;14.10;99.90;;;;;;4969614;28;20581;-73
2022/10/02 13:24:59;;;;;;;1.33;1.23;;;14.00;99.90;;;;;;4975885;28;20451;-73
2022/10/02 13:27:48;;;;;;;3.40;2.10;;;14.00;99.90;;;;;;4971948;28;20426;-74
2022/10/02 13:30:19;;;;;;;1.07;0.90;;;14.00;99.90;;;;;;4975684;28;20481;-74
2022/10/02 13:33:13;;;;;;;1.10;1.00;;;14.00;99.90;;;;;;4975198;28;20896;-73
2022/10/02 13:36:06;;;;;;;0.77;0.70;;;13.90;99.90;;;;;;4968436;28;20442;-74
2022/10/02 13:38:58;;;;;;;0.73;0.60;;;13.90;99.90;;;;;;4971425;28;20467;-74
2022/10/02 13:41:52;;;;;;;0.60;0.60;;;13.90;99.90;;;;;;4973263;28;20451;-74
2022/10/02 13:44:40;;;;;;;0.40;0.40;;;13.90;99.90;;;;;;4974114;28;20434;-74
2022/10/02 13:47:13;;;;;;;1.00;0.63;;;13.90;99.90;;;;;;4968978;28;20475;-74
2022/10/02 13:50:05;;;;;;;0.70;0.70;;;13.90;99.90;;;;;;4967759;28;20419;-74
2022/10/02 13:53:08;;;;;;;0.70;0.70;;;13.90;99.90;;;;;;4963204;28;20443;-75
2022/10/02 13:55:46;;;;;;;3.50;0.60;;;13.90;99.90;;;;;;4972922;28;20929;-73
2022/10/02 13:58:47;;;;;;;0.70;0.70;;;14.00;99.90;;;;;;4969128;28;20423;-74
2022/10/02 14:01:28;;;;;;;0.67;0.67;;;14.00;99.90;;;;;;4933925;29;20464;-74
2022/10/02 14:04:18;;;;;;;0.40;0.40;;;14.00;99.90;;;;;;4966107;28;20427;-74
2022/10/02 14:06:54;;;;;;;1.33;1.30;;;14.00;99.90;;;;;;4971331;28;20422;-73
2022/10/02 14:09:38;;;;;;;0.90;0.90;;;14.00;99.90;;;;;;4974511;28;20430;-74
2022/10/02 14:12:26;;;;;;;0.70;0.70;;;13.90;99.90;;;;;;4966912;28;20440;-74
2022/10/02 14:15:15;;;;;;;0.60;0.53;;;14.10;99.90;;;;;;4966887;28;20463;-74
2022/10/02 14:18:09;;;;;;;2.90;2.70;;;14.10;99.90;;;;;;4957710;28;20425;-74
2022/10/02 14:21:02;;;;;;;0.83;0.73;;;14.20;99.90;;;;;;4964977;28;20465;-71
2022/10/02 14:23:46;;;;;;;1.50;0.60;;;14.20;99.90;;;;;;4971877;28;20423;-73
2022/10/02 14:26:23;;;;;;;4.17;3.80;;;14.20;99.90;;;;;;4972053;28;20932;-73
2022/10/02 14:29:19;;;;;;;1.00;1.00;;;14.20;99.90;;;;;;4968939;28;20419;-74
2022/10/02 14:32:02;;;;;;;1.80;0.70;;;14.10;99.90;;;;;;4969592;28;20557;-75
2022/10/02 14:34:49;;;;;;;1.27;1.00;;;14.10;99.90;;;;;;4959980;28;20444;-74
2022/10/02 14:37:42;;;;;;;0.97;0.80;;;14.20;99.90;;;;;;4974215;28;20466;-73
2022/10/02 14:40:14;;;;;;;5.80;1.00;;;14.20;99.90;;;;;;4967441;28;20549;-74
2022/10/02 14:43:18;;;;;;;6.63;4.43;;;14.00;99.90;;;;;;4973822;28;20463;-74
2022/10/02 14:46:17;;;;;;;6.87;4.00;;;14.00;99.90;;;;;;4967233;28;20563;-73
2022/10/02 14:49:13;;;;;;;3.20;1.30;;;14.00;99.90;;;;;;4974041;28;20937;-74
2022/10/02 14:52:17;;;;;;;4.93;2.17;;;14.10;99.90;;;;;;4968329;28;20853;-74
2022/10/02 14:55:10;;;;;;;1.77;1.67;;;14.10;99.90;;;;;;4962038;28;20454;-73
2022/10/02 14:58:02;;;;;;;2.73;1.57;;;14.00;99.90;;;;;;4963598;28;20427;-74
2022/10/02 15:00:55;;;;;;;3.70;0.87;;;14.00;99.90;;;;;;4972038;28;20528;-74
2022/10/02 15:03:38;;;;;;;1.13;1.03;;;14.00;99.90;;;;;;4968943;28;20419;-73
2022/10/02 15:06:21;;;;;;;1.27;1.20;;;14.00;99.90;;;;;;4970817;28;20427;-73
2022/10/02 15:08:58;;;;;;;0.60;0.60;;;13.90;99.90;;;;;;4973292;28;20526;-73
2022/10/02 15:11:33;;;;;;;1.73;0.80;;;13.80;99.90;;;;;;4972037;28;20506;-74
2022/10/02 15:14:08;;;;;;;2.33;0.97;;;13.80;99.90;;;;;;4973458;28;20433;-73
2022/10/02 15:20:01;;;;;;;1.07;0.97;;;13.70;99.90;;;;;;4958437;28;21007;-73
2022/10/02 15:22:50;;;;;;;0.80;0.60;;;13.70;99.90;;;;;;4973747;28;20445;-73
2022/10/02 15:26:14;;;;;;;0.93;0.83;;;13.70;99.90;;;;;;4973488;28;20411;-74
2022/10/02 15:28:47;;;;;;;4.87;4.37;;;13.60;99.90;;;;;;4930840;29;20433;-73
2022/10/02 15:31:31;;;;;;;1.60;1.50;;;13.60;99.90;;;;;;4935027;29;20523;-74
2022/10/02 15:34:15;;;;;;;1.30;0.90;;;13.60;99.90;;;;;;4957778;28;20873;-75
2022/10/02 15:37:06;;;;;;;2.83;2.63;;;13.50;99.90;;;;;;4969884;28;20790;-74
2022/10/02 15:39:40;;;;;;;0.90;0.90;;;13.50;99.90;;;;;;4965822;28;20478;-75
2022/10/02 15:42:08;;;;;;;2.03;1.33;;;13.50;99.90;;;;;;4970254;28;20467;-74
2022/10/02 15:45:05;;;;;;;1.40;1.30;;;13.50;99.90;;;;;;4972587;28;20931;-75
2022/10/02 15:47:57;;;;;;;1.00;1.00;;;13.40;99.90;;;;;;4959316;28;20465;-75
2022/10/02 15:50:33;;;;;;;0.80;0.80;;;13.30;99.90;;;;;;4973440;28;20471;-74
2022/10/02 15:53:29;;;;;;;0.97;0.70;;;13.30;99.90;;;;;;4973674;28;20685;-75
2022/10/02 15:56:20;;;;;;;1.40;0.70;;;13.20;99.90;;;;;;4966308;28;20529;-76
2022/10/02 15:58:56;;;;;;;1.03;0.87;;;13.20;99.90;;;;;;4967979;28;21014;-76
2022/10/02 16:01:44;;;;;;;0.97;0.97;;;13.20;99.90;;;;;;4973743;28;20488;-75